カンポ・グランデ の空港の天気 - METARとTAF

カンポ・グランデ国際空港 ( SBCG / CGR ) - ブラジル マットグロッソ・ド・スル州カンポ・グランデ
飛行場実況気象(Metar)
観測時間12/01 20:00 AMST (12/01 23:00 UTC)
風向・風速北北西 2m/s
視程10km以上
天気現象周辺で雷
全天の4割程度の雲 雲底高度 1370m
少しの雲 雲底高度 1520m
気温23℃
湿度83%
気圧1012hPa
METARSBCG 012300Z 33003KT 9999 VCTS SCT045 FEW050CB 23/20 Q1012
過去の天気等 Google飛行場航空写真 Wunderground天気予報

過去48時間のMETAR

飛行場予報(TAF)
発表時間: 12/01 18:10 AMST (12/01 21:10 UTC)
予報対象時間: 1日21時 AMST ~ 2日21時 AMST
風向・風速南南東 3m/s
視程10km以上
少しの雲 雲底高度 1220m
1日22時 AMST ~ 1日24時 AMST に徐々に
風向・風速北東 3m/s
視程10km以上
なし
2日9時 AMST ~ 2日11時 AMST に徐々に
風向・風速北北西 4m/s
全天の4割程度の雲 雲底高度 1070m
少しの塔状積雲 雲底高度 1370m
2日12時 AMST ~ 2日14時 AMST に徐々に
視程7000m
天気現象雷雨
全天の8割程度の雲 雲底高度 910m
少しの積乱雲 雲底高度 1220m
2日18時 AMST ~ 2日20時 AMST に徐々に
風向・風速北東 4m/s
視程10km以上
天気現象運行に影響にある天気現象が終了
少しの雲 雲底高度 1220m
TAF SBCG 012110Z 0200/0224 15005KT 9999 FEW040 TN22/0209Z TX33/0217Z
BECMG 0201/0203 05005KT CAVOK
BECMG 0212/0214 33008KT SCT035 FEW045TCU
BECMG 0215/0217 7000 TSRA BKN030 FEW040CB
BECMG 0221/0223 05007KT 9999 NSW FEW040 RMK PGN